Airfield :
LOGIN :

Register | Disclaimer

   EN    FR    IT 

 










Legend :    VFR   Marginal VFR   IFR   Intensive IFR   Very Intensive IFR
Visi :
Ceiling :
>= 8 km
>= 3000ft
5 to 8 km
1000 to 3000 ft
1500m to 5 km
500 to 1000 ft
800 to 1500m
200 to 500 ft
< 800m
< 200 ft
Symbols :   Thunderstorms  Fog  Heavy snow  Heavy precipitations  Wind > 20 kt
SIGMETs :     Misc.  Thunderstorms  Icing  Turbulence  Mountain Waves  Volcanic Ashes






- Airport Elevation : 13 ft
- IATA code : OST


EBOS - Oostend bruges Int.

CURRENT METAR :
  • 160620Z 21008KT 9999 FEW012 10/08 Q1001 TEMPO 4000 SHRA

EXPIRED METARs :
  • 160550Z 20007KT 9000 FEW016 09/07 Q1001 NOSIG
  • 160520Z 20007KT 8000 FEW024 08/07 Q1001 NOSIG
  • 160450Z 20008KT 8000 FEW014 SCT025 08/07 Q1001 NOSIG
  • 160420Z 21008KT 8000 FEW014 SCT025 08/07 Q1001 NOSIG
  • 160350Z 20009KT 8000 SCT014 BKN025 09/07 Q1001 TEMPO BKN013

TAF TAF EBOS
Valid from the 16 at 06:00 until the 17 at 12:00 UTC


160510Z 1606/1712 23012KT 9999 SCT020TCU SCT040
TEMPO 1606/1621 4000 SHRA
PROB30
TEMPO 1609/1618 VRB15G25KT 2500 TSRAGS
BECMG 1623/1701 BKN012
PROB40
TEMPO 1701/1710 25018G28KT 4000 RA SHRA BKN008 BKN014CB
PROB30
TEMPO 1706/1710 TSRA
BECMG 1710/1712 30012KT SCT015 BKN035



MET'MAP, your aeronautical weather chart ! - Copyright ORBIFLY December 2007 - Disclaimer

ORBIFLY MET'MAP TEAM :

Programming & Development : Alexandra Zaïnal
Concept & original design : Baudouin d'Aumeries
Assistance for programming : Marc-Olivier Méhu
Technical & hardware support : Manuel Goepfert

Contact : metmap@orbifly.com




SOURCES & CREDITS :

   NOAA